Time;durP1;ratioP1;P1;durP2;ratioP2;P2;SDS_P1;SDS_P2;PMS_P1;PMS_P2;Temp;Humidity;BMP_temperature;BMP_pressure;BME280_temperature;BME280_humidity;BME280_pressure;Samples;Min_cycle;Max_cycle;Signal;HPM_P1;HPM_P2
2023/11/01 00:00:38;;;;;;;2.03;1.70;;;12.30;99.90;;;;;;5038859;28;20410;-74
2023/11/01 00:03:04;;;;;;;5.50;1.93;;;12.30;99.90;;;;;;5037466;28;20414;-74
2023/11/01 00:05:29;;;;;;;5.60;2.60;;;12.40;99.90;;;;;;5038255;28;20176;-74
2023/11/01 00:07:55;;;;;;;3.93;1.93;;;12.30;99.90;;;;;;5037557;28;20199;-74
2023/11/01 00:10:20;;;;;;;5.50;2.17;;;12.40;99.90;;;;;;5038249;28;20232;-74
2023/11/01 00:12:46;;;;;;;3.83;1.90;;;12.40;99.90;;;;;;5038387;28;20179;-75
2023/11/01 00:15:12;;;;;;;4.80;2.17;;;12.50;99.90;;;;;;5036563;28;20182;-74
2023/11/01 00:17:38;;;;;;;9.80;1.90;;;12.50;99.90;;;;;;5038056;28;20725;-74
2023/11/01 00:20:04;;;;;;;6.10;2.23;;;12.60;99.90;;;;;;5038040;28;20411;-74
2023/11/01 00:22:30;;;;;;;2.27;1.40;;;12.50;99.90;;;;;;5037391;28;20177;-74
2023/11/01 00:24:56;;;;;;;3.83;2.30;;;12.60;99.90;;;;;;5037361;28;20406;-74
2023/11/01 00:27:21;;;;;;;4.23;2.20;;;12.60;99.90;;;;;;5036369;28;20199;-75
2023/11/01 00:29:47;;;;;;;2.47;1.70;;;12.60;99.90;;;;;;5036321;28;20233;-74
2023/11/01 00:32:14;;;;;;;2.20;1.57;;;12.50;99.90;;;;;;5036022;28;20184;-74
2023/11/01 00:34:39;;;;;;;2.33;1.57;;;12.60;99.90;;;;;;5038064;28;20414;-74
2023/11/01 00:37:05;;;;;;;1.57;1.47;;;12.60;99.90;;;;;;5032660;28;20489;-74
2023/11/01 00:39:31;;;;;;;4.13;2.67;;;12.50;99.90;;;;;;5034401;28;20253;-73
2023/11/01 00:41:56;;;;;;;5.07;3.37;;;12.50;99.90;;;;;;5035891;28;20176;-75
2023/11/01 00:44:22;;;;;;;3.60;2.20;;;12.60;99.90;;;;;;5037834;28;20259;-75
2023/11/01 00:46:47;;;;;;;4.97;1.93;;;12.50;99.90;;;;;;5036701;28;20180;-74
2023/11/01 00:49:13;;;;;;;4.70;2.10;;;12.50;99.90;;;;;;5037773;28;20508;-73
2023/11/01 00:51:38;;;;;;;6.00;2.10;;;12.60;99.90;;;;;;5035938;28;20747;-74
2023/11/01 00:54:05;;;;;;;7.03;1.67;;;12.50;99.90;;;;;;5036797;28;20168;-74
2023/11/01 00:56:30;;;;;;;2.40;1.80;;;12.50;99.90;;;;;;5035633;28;20270;-75
2023/11/01 00:58:56;;;;;;;5.90;1.63;;;12.40;99.90;;;;;;5035325;28;21005;-74
2023/11/01 01:01:23;;;;;;;3.27;2.20;;;12.30;99.90;;;;;;5036772;28;20527;-74
2023/11/01 01:03:48;;;;;;;7.30;2.20;;;12.40;99.90;;;;;;5035905;28;20164;-74
2023/11/01 01:06:14;;;;;;;3.50;2.30;;;12.30;99.90;;;;;;5035848;28;20410;-74
2023/11/01 01:08:39;;;;;;;3.00;1.60;;;12.30;99.90;;;;;;5036107;28;20359;-73
2023/11/01 01:11:05;;;;;;;3.93;1.53;;;12.20;99.90;;;;;;5035989;28;20182;-75
2023/11/01 01:13:31;;;;;;;2.97;1.60;;;12.20;99.90;;;;;;5035198;28;20176;-74
2023/11/01 01:15:56;;;;;;;1.80;1.50;;;12.10;99.90;;;;;;5034993;28;20577;-74
2023/11/01 01:18:22;;;;;;;3.53;1.63;;;12.10;99.90;;;;;;5034858;28;20203;-74
2023/11/01 01:20:48;;;;;;;4.40;2.10;;;12.20;99.90;;;;;;5033699;28;20175;-74
2023/11/01 01:23:14;;;;;;;5.13;1.97;;;12.20;99.90;;;;;;5033836;28;20207;-74
2023/11/01 01:25:39;;;;;;;4.40;2.10;;;12.20;99.90;;;;;;5034072;28;20178;-74
2023/11/01 01:28:05;;;;;;;7.50;1.83;;;12.10;99.90;;;;;;5035268;28;20991;-74
2023/11/01 01:30:30;;;;;;;3.03;2.10;;;12.10;99.90;;;;;;5035415;28;20238;-74
2023/11/01 01:32:56;;;;;;;4.30;1.73;;;12.10;99.90;;;;;;5034986;28;20175;-74
2023/11/01 01:35:23;;;;;;;4.37;1.63;;;12.10;99.90;;;;;;5032517;28;20198;-73
2023/11/01 01:37:48;;;;;;;1.77;1.67;;;12.10;99.90;;;;;;5027873;28;20207;-74
2023/11/01 01:40:14;;;;;;;5.20;2.00;;;12.20;99.90;;;;;;5035001;28;20428;-74
2023/11/01 01:42:40;;;;;;;3.23;1.40;;;12.30;99.90;;;;;;5034160;28;20180;-74
2023/11/01 01:45:07;;;;;;;2.83;1.23;;;12.30;99.90;;;;;;5034235;28;20195;-74
2023/11/01 01:47:34;;;;;;;2.40;1.60;;;12.30;99.90;;;;;;5033317;28;20484;-74
2023/11/01 01:50:01;;;;;;;1.40;1.30;;;12.30;99.90;;;;;;5033303;28;20428;-74
2023/11/01 01:52:26;;;;;;;1.37;1.10;;;12.40;99.90;;;;;;5035243;28;20410;-74
2023/11/01 01:54:53;;;;;;;1.80;1.50;;;12.40;99.90;;;;;;5034799;28;20412;-74
2023/11/01 01:57:27;;;;;;;3.67;1.33;;;12.50;99.90;;;;;;5034740;28;20625;-74
2023/11/01 01:59:54;;;;;;;2.37;1.20;;;12.50;99.90;;;;;;5034777;28;20410;-74
2023/11/01 02:02:20;;;;;;;4.60;1.90;;;12.50;99.90;;;;;;5034265;28;20450;-74
2023/11/01 02:04:48;;;;;;;2.27;1.03;;;12.50;99.90;;;;;;5034933;28;21044;-74
2023/11/01 02:07:14;;;;;;;2.30;1.30;;;12.50;99.90;;;;;;5034315;28;20469;-74
2023/11/01 02:09:40;;;;;;;6.00;1.33;;;12.30;99.90;;;;;;5034309;28;20405;-74
2023/11/01 02:12:06;;;;;;;1.10;1.00;;;12.30;99.90;;;;;;5033940;28;20989;-74
2023/11/01 02:14:32;;;;;;;2.77;1.10;;;12.30;99.90;;;;;;5034180;28;20398;-74
2023/11/01 02:16:57;;;;;;;2.70;1.10;;;12.40;99.90;;;;;;5033049;28;20198;-74
2023/11/01 02:19:23;;;;;;;2.70;1.07;;;12.40;99.90;;;;;;5032996;28;20230;-74
2023/11/01 02:21:49;;;;;;;1.40;1.23;;;12.40;99.90;;;;;;5032958;28;20167;-74
2023/11/01 02:24:14;;;;;;;4.47;1.30;;;12.40;99.90;;;;;;5031941;28;20171;-74
2023/11/01 02:26:40;;;;;;;2.13;1.30;;;12.50;99.90;;;;;;5033422;28;20210;-74
2023/11/01 02:29:06;;;;;;;1.33;0.90;;;12.50;99.90;;;;;;5032968;28;20199;-74
2023/11/01 02:31:32;;;;;;;2.87;1.20;;;12.60;99.90;;;;;;5035100;28;20414;-74
2023/11/01 02:33:58;;;;;;;1.23;1.07;;;12.60;99.90;;;;;;5033120;28;20425;-74
2023/11/01 02:36:23;;;;;;;2.60;1.00;;;12.70;99.90;;;;;;5029875;28;20418;-74
2023/11/01 02:38:49;;;;;;;2.93;1.33;;;12.70;99.90;;;;;;5032888;28;20211;-74
2023/11/01 02:41:15;;;;;;;2.27;0.90;;;12.70;99.90;;;;;;5033816;28;20164;-74
2023/11/01 02:43:41;;;;;;;1.73;1.10;;;12.70;99.90;;;;;;5034175;28;20222;-74
2023/11/01 02:46:06;;;;;;;1.40;1.00;;;12.70;99.90;;;;;;5035016;28;20402;-74
2023/11/01 02:48:32;;;;;;;5.93;1.67;;;12.80;99.90;;;;;;5034733;28;20234;-74
2023/11/01 02:50:57;;;;;;;6.53;1.43;;;12.90;99.90;;;;;;5034088;28;20175;-74
2023/11/01 02:53:23;;;;;;;7.90;1.83;;;12.80;99.90;;;;;;5033762;28;20168;-73
2023/11/01 02:55:49;;;;;;;2.70;1.33;;;12.80;99.90;;;;;;5033765;28;20669;-74
2023/11/01 02:58:14;;;;;;;1.23;0.80;;;12.70;99.90;;;;;;5033683;28;20206;-74
2023/11/01 03:00:40;;;;;;;4.60;1.40;;;12.60;99.90;;;;;;5033232;28;20178;-74
2023/11/01 03:03:05;;;;;;;1.70;1.20;;;12.60;99.90;;;;;;5033954;28;20164;-75
2023/11/01 03:05:31;;;;;;;3.23;1.70;;;12.60;99.90;;;;;;5034135;28;20178;-74
2023/11/01 03:07:56;;;;;;;1.83;1.73;;;12.60;99.90;;;;;;5033867;28;20190;-74
2023/11/01 03:10:22;;;;;;;3.27;1.80;;;12.60;99.90;;;;;;5033414;28;20176;-74
2023/11/01 03:12:48;;;;;;;4.40;2.10;;;12.60;99.90;;;;;;5033469;28;20172;-74
2023/11/01 03:15:14;;;;;;;3.60;1.70;;;12.60;99.90;;;;;;5035152;28;20437;-74
2023/11/01 03:17:40;;;;;;;7.47;2.30;;;12.50;99.90;;;;;;5037189;28;20685;-74
2023/11/01 03:20:10;;;;;;;4.00;2.47;;;12.50;99.90;;;;;;5036841;28;20236;-74
2023/11/01 03:22:36;;;;;;;5.27;2.60;;;12.50;99.90;;;;;;5035645;28;20432;-75
2023/11/01 03:25:02;;;;;;;3.30;2.27;;;12.50;99.90;;;;;;5037534;28;20406;-75
2023/11/01 03:27:28;;;;;;;4.23;2.27;;;12.50;99.90;;;;;;5037060;28;20187;-74
2023/11/01 03:29:54;;;;;;;2.07;1.83;;;12.50;99.90;;;;;;5037114;28;20406;-75
2023/11/01 03:32:20;;;;;;;2.80;2.10;;;12.40;99.90;;;;;;5036588;28;20779;-75
2023/11/01 03:34:45;;;;;;;2.83;1.90;;;12.30;99.90;;;;;;5036547;28;20513;-75
2023/11/01 03:37:11;;;;;;;5.43;1.90;;;12.30;99.90;;;;;;5030982;28;20202;-75
2023/11/01 03:39:37;;;;;;;3.30;1.50;;;12.20;99.90;;;;;;5035095;28;20660;-75
2023/11/01 03:42:04;;;;;;;2.23;1.50;;;12.30;99.90;;;;;;5036562;28;20172;-75
2023/11/01 03:44:33;;;;;;;3.17;2.37;;;12.20;99.90;;;;;;5036843;28;20167;-75
2023/11/01 03:47:02;;;;;;;4.10;1.57;;;12.20;99.90;;;;;;5035392;28;20905;-75
2023/11/01 03:49:29;;;;;;;6.33;1.90;;;12.30;99.90;;;;;;5036175;28;20406;-75
2023/11/01 03:51:59;;;;;;;5.80;1.53;;;12.20;99.90;;;;;;5035260;28;20422;-75
2023/11/01 03:54:24;;;;;;;2.13;1.60;;;12.30;99.90;;;;;;5036423;28;20398;-76
2023/11/01 03:56:50;;;;;;;2.20;1.57;;;12.30;99.90;;;;;;5036056;28;20472;-76
2023/11/01 03:59:15;;;;;;;4.10;1.40;;;12.20;99.90;;;;;;5036478;28;20238;-76
2023/11/01 04:01:41;;;;;;;1.50;1.40;;;12.20;99.90;;;;;;5036025;28;20179;-75
2023/11/01 04:04:06;;;;;;;1.40;1.30;;;12.30;99.90;;;;;;5035669;28;20176;-75
2023/11/01 04:06:32;;;;;;;5.80;1.40;;;12.30;99.90;;;;;;5036031;28;20191;-75
2023/11/01 04:08:58;;;;;;;1.10;1.00;;;12.40;99.90;;;;;;5035913;28;20732;-75
2023/11/01 04:11:24;;;;;;;3.60;2.70;;;12.50;99.90;;;;;;5036107;28;20175;-75
2023/11/01 04:13:50;;;;;;;4.03;1.53;;;12.50;99.90;;;;;;5035868;28;20407;-75
2023/11/01 04:16:15;;;;;;;3.10;1.20;;;12.50;99.90;;;;;;5035996;28;20171;-75
2023/11/01 04:18:42;;;;;;;2.03;1.93;;;12.50;99.90;;;;;;5033974;28;20713;-75
2023/11/01 04:21:08;;;;;;;3.27;1.60;;;12.50;99.90;;;;;;5036255;28;20179;-75
2023/11/01 04:23:34;;;;;;;2.70;2.20;;;12.60;99.90;;;;;;5035702;28;20893;-75
2023/11/01 04:26:00;;;;;;;4.80;1.90;;;12.50;99.90;;;;;;5033985;28;20592;-75
2023/11/01 04:28:26;;;;;;;3.60;1.93;;;12.50;99.90;;;;;;5035658;28;20469;-75
2023/11/01 04:30:51;;;;;;;2.20;1.90;;;12.50;99.90;;;;;;5035785;28;20534;-75
2023/11/01 04:33:17;;;;;;;3.97;2.23;;;12.50;99.90;;;;;;5034317;28;20180;-75
2023/11/01 04:35:42;;;;;;;5.40;3.10;;;12.50;99.90;;;;;;5033684;28;20270;-75
2023/11/01 04:38:08;;;;;;;3.10;2.37;;;12.50;99.90;;;;;;5032962;28;20245;-75
2023/11/01 04:40:34;;;;;;;6.77;2.60;;;12.50;99.90;;;;;;5035310;28;20203;-75
2023/11/01 04:43:00;;;;;;;9.93;2.53;;;12.50;99.90;;;;;;5035530;28;20187;-75
2023/11/01 04:45:25;;;;;;;4.30;2.73;;;12.60;99.90;;;;;;5036088;28;20406;-74
2023/11/01 04:47:51;;;;;;;6.80;2.90;;;12.70;99.90;;;;;;5035133;28;20582;-75
2023/11/01 04:50:17;;;;;;;2.90;1.70;;;12.50;99.90;;;;;;5035738;28;20191;-75
2023/11/01 04:52:43;;;;;;;3.80;2.00;;;12.50;99.90;;;;;;5035318;28;20191;-75
2023/11/01 04:55:10;;;;;;;3.70;2.13;;;12.50;99.90;;;;;;5035819;28;20168;-75
2023/11/01 04:57:35;;;;;;;2.40;1.87;;;12.50;99.90;;;;;;5033618;28;20807;-75
2023/11/01 05:00:01;;;;;;;2.40;1.57;;;12.50;99.90;;;;;;5033427;28;20469;-75
2023/11/01 05:02:28;;;;;;;2.40;1.60;;;12.40;99.90;;;;;;5034572;28;20164;-75
2023/11/01 05:04:54;;;;;;;2.63;1.30;;;12.50;99.90;;;;;;5025545;28;20433;-75
2023/11/01 05:07:20;;;;;;;2.13;1.70;;;12.50;99.90;;;;;;5033960;28;20191;-74
2023/11/01 05:09:45;;;;;;;3.60;1.10;;;12.50;99.90;;;;;;5034181;28;20225;-75
2023/11/01 05:12:11;;;;;;;4.20;1.70;;;12.60;99.90;;;;;;5033191;28;20289;-75
2023/11/01 05:14:36;;;;;;;1.20;1.10;;;12.50;99.90;;;;;;5034362;28;20191;-75
2023/11/01 05:17:02;;;;;;;1.67;1.57;;;12.60;99.90;;;;;;5034332;28;20190;-75
2023/11/01 05:19:27;;;;;;;2.20;2.00;;;12.60;99.90;;;;;;5032962;28;20231;-75
2023/11/01 05:21:53;;;;;;;1.93;1.03;;;12.60;99.90;;;;;;5034013;28;20172;-75
2023/11/01 05:24:18;;;;;;;1.30;1.20;;;12.60;99.90;;;;;;5034348;28;20650;-75
2023/11/01 05:26:44;;;;;;;3.60;1.30;;;12.50;99.90;;;;;;5034088;28;20172;-75
2023/11/01 05:29:10;;;;;;;1.83;1.17;;;12.40;99.90;;;;;;5033043;28;20663;-74
2023/11/01 05:31:36;;;;;;;1.60;1.40;;;12.40;99.90;;;;;;5034025;28;20925;-74
2023/11/01 05:34:03;;;;;;;1.37;1.27;;;12.40;99.90;;;;;;5034276;28;20403;-75
2023/11/01 05:36:28;;;;;;;1.70;1.20;;;12.30;99.90;;;;;;5028528;28;20187;-74
2023/11/01 05:38:54;;;;;;;2.10;1.90;;;12.20;99.90;;;;;;5029961;28;20835;-75
2023/11/01 05:41:20;;;;;;;1.30;1.10;;;12.20;99.90;;;;;;5032866;28;20540;-74
2023/11/01 05:43:46;;;;;;;2.13;1.83;;;12.20;99.90;;;;;;5034034;28;20168;-75
2023/11/01 05:46:11;;;;;;;1.37;1.23;;;12.20;99.90;;;;;;5034541;28;20187;-75
2023/11/01 05:48:37;;;;;;;1.80;1.23;;;12.20;99.90;;;;;;5032547;28;20199;-75
2023/11/01 05:51:03;;;;;;;1.90;1.13;;;12.10;99.90;;;;;;5033770;28;20273;-74
2023/11/01 05:53:31;;;;;;;1.33;1.03;;;12.10;99.90;;;;;;5032535;28;20804;-76
2023/11/01 05:55:58;;;;;;;2.13;1.20;;;12.10;99.90;;;;;;5033658;28;20441;-74
2023/11/01 05:58:24;;;;;;;1.53;1.07;;;12.10;99.90;;;;;;5032532;28;20454;-74
2023/11/01 06:00:50;;;;;;;3.43;1.20;;;12.10;99.90;;;;;;5032648;28;21088;-75
2023/11/01 06:03:15;;;;;;;4.30;1.87;;;12.00;99.90;;;;;;5033723;28;20213;-75
2023/11/01 06:05:41;;;;;;;1.93;1.60;;;12.00;99.90;;;;;;5035835;28;20245;-75
2023/11/01 06:08:08;;;;;;;1.73;1.10;;;12.10;99.90;;;;;;5034333;28;20207;-74
2023/11/01 06:10:35;;;;;;;1.97;1.20;;;12.10;99.90;;;;;;5033925;28;20171;-75
2023/11/01 06:13:01;;;;;;;1.70;1.20;;;12.10;99.90;;;;;;5033871;28;20785;-74
2023/11/01 06:15:27;;;;;;;1.33;0.90;;;12.20;99.90;;;;;;5033117;28;20978;-74
2023/11/01 06:17:53;;;;;;;3.10;1.17;;;12.20;99.90;;;;;;5034104;28;20540;-74
2023/11/01 06:20:18;;;;;;;1.30;1.20;;;12.10;99.90;;;;;;5032899;28;20199;-75
2023/11/01 06:22:44;;;;;;;1.80;1.57;;;12.00;99.90;;;;;;5034524;28;20588;-74
2023/11/01 06:25:10;;;;;;;7.80;4.37;;;12.00;99.90;;;;;;5033202;28;20182;-74
2023/11/01 06:27:36;;;;;;;1.60;1.50;;;11.90;99.90;;;;;;5033221;28;20233;-75
2023/11/01 06:30:05;;;;;;;1.93;1.80;;;11.80;99.90;;;;;;5033634;28;20426;-75
2023/11/01 06:32:32;;;;;;;5.23;2.00;;;11.80;99.90;;;;;;5032196;28;20176;-74
2023/11/01 06:34:59;;;;;;;1.90;1.80;;;11.70;99.90;;;;;;5033060;28;20423;-74
2023/11/01 06:37:25;;;;;;;2.10;1.73;;;11.70;99.90;;;;;;5025805;28;20511;-75
2023/11/01 06:39:50;;;;;;;5.77;2.47;;;11.70;99.90;;;;;;5031912;28;20452;-75
2023/11/01 06:42:16;;;;;;;4.27;2.13;;;11.70;99.90;;;;;;5033065;28;20886;-75
2023/11/01 06:44:42;;;;;;;4.67;2.83;;;11.60;99.90;;;;;;5033082;28;20171;-75
2023/11/01 06:47:07;;;;;;;6.73;4.10;;;11.70;99.90;;;;;;5033006;28;20175;-74
2023/11/01 06:49:37;;;;;;;4.20;3.57;;;11.70;99.90;;;;;;5032706;28;20176;-75
2023/11/01 06:52:06;;;;;;;2.53;2.30;;;11.80;99.90;;;;;;5031677;28;20182;-75
2023/11/01 06:54:32;;;;;;;1.60;1.47;;;11.90;99.90;;;;;;5031576;28;20414;-75
2023/11/01 06:56:58;;;;;;;4.60;2.00;;;11.90;99.90;;;;;;5031392;28;20472;-74
2023/11/01 06:59:23;;;;;;;2.80;1.50;;;12.00;99.90;;;;;;5032642;28;20206;-75
2023/11/01 07:01:49;;;;;;;3.07;1.60;;;11.90;99.90;;;;;;5031930;28;20202;-75
2023/11/01 07:04:15;;;;;;;7.37;1.70;;;12.00;99.90;;;;;;5031606;28;20176;-74
2023/11/01 07:06:43;;;;;;;2.33;1.40;;;12.00;99.90;;;;;;5031692;28;20179;-75
2023/11/01 07:09:09;;;;;;;5.10;2.17;;;12.10;99.90;;;;;;5031329;28;20571;-75
2023/11/01 07:11:35;;;;;;;4.67;1.67;;;12.10;99.90;;;;;;5032684;28;20773;-74
2023/11/01 07:14:01;;;;;;;3.40;1.60;;;12.30;99.90;;;;;;5032780;28;20418;-75
2023/11/01 07:16:27;;;;;;;2.63;1.67;;;12.40;99.90;;;;;;5032342;28;21006;-74
2023/11/01 07:18:53;;;;;;;1.67;1.20;;;12.30;99.90;;;;;;5032667;28;20203;-75
2023/11/01 07:21:18;;;;;;;3.63;1.30;;;12.30;99.90;;;;;;5032296;28;20474;-75
2023/11/01 07:23:44;;;;;;;2.40;1.00;;;12.30;99.90;;;;;;5032285;28;20627;-74
2023/11/01 07:26:10;;;;;;;1.50;1.10;;;12.40;99.90;;;;;;5031416;28;20176;-75
2023/11/01 07:28:35;;;;;;;7.80;1.53;;;12.50;99.90;;;;;;5030590;28;20250;-74
2023/11/01 07:31:01;;;;;;;3.47;1.70;;;12.50;99.90;;;;;;5032488;28;20916;-75
2023/11/01 07:33:27;;;;;;;2.13;1.30;;;12.60;99.90;;;;;;5032268;28;20183;-74
2023/11/01 07:35:52;;;;;;;3.97;1.30;;;12.80;99.90;;;;;;5030121;28;20180;-75
2023/11/01 07:38:18;;;;;;;2.80;1.13;;;12.80;99.90;;;;;;5024474;28;20199;-75
2023/11/01 07:40:43;;;;;;;4.57;1.30;;;13.00;99.90;;;;;;5032289;28;20241;-74
2023/11/01 07:43:09;;;;;;;1.93;1.50;;;13.10;99.90;;;;;;5031734;28;20179;-74
2023/11/01 07:45:34;;;;;;;4.20;1.33;;;13.10;99.90;;;;;;5035875;28;20650;-74
2023/11/01 07:48:00;;;;;;;4.80;1.40;;;13.20;99.90;;;;;;5032551;28;20302;-75
2023/11/01 07:50:25;;;;;;;5.97;2.10;;;13.30;99.90;;;;;;5032310;28;20180;-75
2023/11/01 07:52:51;;;;;;;3.27;1.13;;;13.40;99.90;;;;;;5032356;28;20517;-75
2023/11/01 07:55:16;;;;;;;3.87;1.33;;;13.50;99.90;;;;;;5032101;28;20172;-75
2023/11/01 07:57:42;;;;;;;4.50;2.20;;;13.50;99.90;;;;;;5031987;28;20200;-75
2023/11/01 08:00:08;;;;;;;5.43;1.27;;;13.70;99.90;;;;;;5031864;28;20175;-74
2023/11/01 08:02:34;;;;;;;1.97;1.47;;;13.70;99.90;;;;;;5034560;28;20274;-75
2023/11/01 08:04:59;;;;;;;2.20;1.13;;;13.90;99.90;;;;;;5034382;28;20453;-74
2023/11/01 08:07:25;;;;;;;4.37;1.30;;;13.90;99.90;;;;;;5035301;28;20229;-74
2023/11/01 08:09:52;;;;;;;3.87;1.53;;;13.90;99.90;;;;;;5035355;28;20317;-75
2023/11/01 08:12:19;;;;;;;4.03;1.23;;;14.10;99.90;;;;;;5034956;28;20398;-72
2023/11/01 08:14:44;;;;;;;4.90;1.67;;;14.20;99.90;;;;;;5034303;28;20414;-72
2023/11/01 08:17:10;;;;;;;6.03;1.23;;;14.40;99.90;;;;;;5034497;28;20469;-72
2023/11/01 08:19:38;;;;;;;7.43;1.27;;;14.40;99.90;;;;;;5034356;28;20187;-72
2023/11/01 08:22:03;;;;;;;5.33;1.37;;;14.50;99.90;;;;;;5034308;28;20834;-72
2023/11/01 08:24:29;;;;;;;2.60;1.10;;;14.50;99.90;;;;;;5034424;28;20425;-71
2023/11/01 08:26:55;;;;;;;3.83;1.70;;;14.50;99.90;;;;;;5034458;28;20192;-72
2023/11/01 08:29:21;;;;;;;1.43;1.17;;;14.40;99.90;;;;;;5034619;28;20186;-72
2023/11/01 08:31:47;;;;;;;4.63;1.07;;;14.50;99.90;;;;;;5032955;28;20167;-72
2023/11/01 08:34:12;;;;;;;7.13;1.13;;;14.60;99.90;;;;;;5034246;28;20410;-72
2023/11/01 08:36:38;;;;;;;1.93;1.30;;;14.90;99.90;;;;;;5033409;28;20175;-72
2023/11/01 08:39:04;;;;;;;3.33;1.43;;;15.10;99.90;;;;;;5033903;28;20199;-72
2023/11/01 08:41:29;;;;;;;2.73;1.33;;;15.20;99.90;;;;;;5033824;28;20172;-72
2023/11/01 08:43:55;;;;;;;3.10;1.67;;;15.30;99.90;;;;;;5034014;28;20174;-72
2023/11/01 08:46:20;;;;;;;2.83;1.17;;;15.40;99.90;;;;;;5033910;28;20190;-72
2023/11/01 08:48:46;;;;;;;3.87;1.43;;;15.50;99.90;;;;;;5033886;28;20678;-73
2023/11/01 08:51:11;;;;;;;2.80;1.33;;;15.50;99.90;;;;;;5033893;28;20179;-72
2023/11/01 08:53:37;;;;;;;1.70;1.10;;;15.60;99.90;;;;;;5029601;28;20222;-72
2023/11/01 08:56:03;;;;;;;3.00;1.50;;;15.50;99.90;;;;;;5033564;28;20714;-72
2023/11/01 08:58:30;;;;;;;6.10;1.23;;;15.70;99.90;;;;;;5033516;28;20235;-72
2023/11/01 09:00:55;;;;;;;2.03;0.97;;;15.70;99.90;;;;;;5033731;28;20657;-72
2023/11/01 09:03:24;;;;;;;2.13;1.10;;;15.80;99.90;;;;;;5033550;28;20418;-72
2023/11/01 09:05:49;;;;;;;3.63;1.10;;;15.80;99.90;;;;;;5033680;28;20168;-71
2023/11/01 09:08:15;;;;;;;2.33;1.30;;;15.70;99.90;;;;;;5033515;28;20437;-71
2023/11/01 09:10:40;;;;;;;1.67;1.20;;;15.60;99.90;;;;;;5033673;28;20254;-72
2023/11/01 09:13:06;;;;;;;2.10;1.13;;;15.70;99.90;;;;;;5031152;28;20167;-72
2023/11/01 09:15:31;;;;;;;1.43;0.90;;;15.70;99.90;;;;;;5033442;28;20661;-72
2023/11/01 09:17:57;;;;;;;1.87;1.27;;;15.50;99.90;;;;;;5031926;28;20195;-72
2023/11/01 09:20:22;;;;;;;7.30;2.00;;;15.40;99.90;;;;;;5033345;28;20520;-71
2023/11/01 09:22:48;;;;;;;4.17;1.33;;;15.40;99.90;;;;;;5033201;28;20168;-72
2023/11/01 09:25:13;;;;;;;3.23;1.20;;;15.30;99.90;;;;;;5033308;28;20190;-72
2023/11/01 09:27:39;;;;;;;4.87;1.30;;;15.20;99.90;;;;;;5033159;28;20559;-72
2023/11/01 09:30:05;;;;;;;2.23;1.00;;;15.10;99.90;;;;;;5033182;28;20171;-72
2023/11/01 09:32:31;;;;;;;2.30;1.13;;;15.20;99.90;;;;;;5033019;28;20214;-72
2023/11/01 09:34:57;;;;;;;2.97;1.27;;;15.10;99.90;;;;;;5028647;28;20846;-72
2023/11/01 09:37:22;;;;;;;3.20;0.97;;;15.10;99.90;;;;;;5032054;28;20278;-72
2023/11/01 09:39:48;;;;;;;2.70;1.10;;;15.20;99.90;;;;;;5031524;28;20195;-72
2023/11/01 09:42:20;;;;;;;1.67;0.93;;;15.10;99.90;;;;;;5026241;28;20183;-71
2023/11/01 09:44:48;;;;;;;3.60;1.10;;;15.10;99.90;;;;;;5032682;28;20168;-72
2023/11/01 09:47:16;;;;;;;1.63;1.20;;;15.10;99.90;;;;;;5032402;28;20434;-70
2023/11/01 09:49:43;;;;;;;5.73;1.67;;;15.30;99.90;;;;;;5032480;28;20422;-72
2023/11/01 09:52:10;;;;;;;3.03;0.90;;;15.30;99.90;;;;;;5032526;28;20488;-72
2023/11/01 09:54:36;;;;;;;4.20;1.10;;;15.60;99.90;;;;;;5032424;28;20414;-72
2023/11/01 09:57:05;;;;;;;4.20;1.10;;;15.80;99.90;;;;;;5032531;28;20917;-72
2023/11/01 09:59:32;;;;;;;3.40;1.23;;;16.20;99.90;;;;;;5032421;28;20400;-72
2023/11/01 10:01:59;;;;;;;2.90;1.00;;;16.70;99.90;;;;;;5032455;28;20414;-72
2023/11/01 10:04:25;;;;;;;2.00;1.27;;;17.20;99.90;;;;;;5031231;28;20485;-72
2023/11/01 10:06:50;;;;;;;6.87;1.50;;;17.70;99.90;;;;;;5032158;28;20511;-72
2023/11/01 10:09:16;;;;;;;1.63;1.00;;;18.00;99.90;;;;;;5032404;28;20178;-72
2023/11/01 10:11:45;;;;;;;2.43;1.07;;;18.20;99.90;;;;;;5032562;28;20246;-72
2023/11/01 10:14:12;;;;;;;2.40;1.00;;;18.30;99.90;;;;;;5032352;28;20429;-72
2023/11/01 10:16:39;;;;;;;2.30;1.10;;;18.10;99.90;;;;;;5031052;28;21012;-72
2023/11/01 10:19:04;;;;;;;1.23;1.00;;;18.10;99.90;;;;;;5032173;28;20457;-72
2023/11/01 10:21:30;;;;;;;2.40;1.33;;;18.10;99.90;;;;;;5032126;28;20826;-72
2023/11/01 10:23:58;;;;;;;5.67;2.13;;;17.70;99.90;;;;;;5031865;28;20172;-71
2023/11/01 10:26:27;;;;;;;3.40;1.33;;;17.50;99.90;;;;;;5032201;28;20438;-72
2023/11/01 10:28:53;;;;;;;4.50;1.20;;;17.20;99.90;;;;;;5032016;28;20426;-72
2023/11/01 10:31:19;;;;;;;2.23;1.30;;;17.00;99.90;;;;;;5032142;28;20417;-72
2023/11/01 10:33:45;;;;;;;8.63;1.30;;;16.70;99.90;;;;;;5032020;28;20578;-72
2023/11/01 10:36:10;;;;;;;1.63;1.00;;;16.70;99.90;;;;;;5031570;28;20195;-72
2023/11/01 10:38:36;;;;;;;2.27;1.07;;;16.60;99.90;;;;;;5025220;28;20485;-73
2023/11/01 10:41:03;;;;;;;6.30;2.67;;;16.60;99.90;;;;;;5031783;28;20171;-73
2023/11/01 10:43:30;;;;;;;2.20;1.30;;;16.60;99.90;;;;;;5032900;28;20627;-73
2023/11/01 10:45:59;;;;;;;3.23;1.20;;;16.60;99.90;;;;;;5030816;28;20986;-73
2023/11/01 10:48:27;;;;;;;3.80;1.40;;;16.80;99.90;;;;;;5031606;28;20721;-73
2023/11/01 10:50:53;;;;;;;3.23;1.20;;;16.80;99.90;;;;;;5030957;28;20524;-74
2023/11/01 10:53:22;;;;;;;2.60;1.43;;;16.80;99.90;;;;;;5031859;28;20410;-72
2023/11/01 10:55:52;;;;;;;2.40;1.70;;;16.70;99.90;;;;;;5031666;28;20517;-72
2023/11/01 10:58:23;;;;;;;2.30;1.23;;;16.60;99.90;;;;;;5031572;28;20443;-71
2023/11/01 11:01:06;;;;;;;3.53;1.20;;;16.50;99.90;;;;;;5031207;28;20414;-72
2023/11/01 11:03:59;;;;;;;3.67;1.57;;;16.40;99.90;;;;;;5043940;28;20819;-72
2023/11/01 11:06:35;;;;;;;4.20;1.20;;;16.40;99.90;;;;;;5051630;28;20393;-70
2023/11/01 11:09:23;;;;;;;1.40;1.20;;;16.50;99.90;;;;;;5050238;28;20951;-72
2023/11/01 11:12:14;;;;;;;3.40;1.70;;;16.90;99.90;;;;;;5031772;28;20445;-72
2023/11/01 11:14:52;;;;;;;2.13;1.40;;;17.50;99.90;;;;;;5012248;28;20502;-73
2023/11/01 11:17:20;;;;;;;7.90;1.57;;;18.10;99.90;;;;;;5011969;28;20430;-72
2023/11/01 11:20:11;;;;;;;5.17;1.53;;;18.70;99.90;;;;;;5025216;28;20457;-72
2023/11/01 11:23:08;;;;;;;10.57;1.50;;;18.90;99.90;;;;;;5024149;28;20407;-72
2023/11/01 11:25:37;;;;;;;4.97;2.90;;;18.60;99.90;;;;;;5031493;28;20452;-72
2023/11/01 11:28:06;;;;;;;3.47;1.40;;;18.60;99.90;;;;;;5038773;28;20478;-72
2023/11/01 11:30:44;;;;;;;2.13;1.77;;;18.50;99.90;;;;;;5043397;28;20414;-72
2023/11/01 11:33:10;;;;;;;3.10;1.20;;;18.50;99.90;;;;;;5030063;28;20923;-72
2023/11/01 11:35:36;;;;;;;3.73;1.60;;;18.40;99.90;;;;;;5030963;28;20414;-73
2023/11/01 11:38:30;;;;;;;3.10;1.40;;;18.30;99.90;;;;;;5033764;28;20464;-72
2023/11/01 11:41:21;;;;;;;6.93;1.37;;;18.10;99.90;;;;;;5027814;28;20575;-72
2023/11/01 11:44:12;;;;;;;6.83;1.60;;;17.60;99.90;;;;;;5036078;28;20410;-73
2023/11/01 11:46:44;;;;;;;3.97;1.40;;;17.70;99.90;;;;;;5028354;28;20408;-72
2023/11/01 11:49:26;;;;;;;5.17;1.70;;;17.30;99.90;;;;;;5041563;28;20464;-72
2023/11/01 11:51:59;;;;;;;5.23;1.90;;;17.30;99.90;;;;;;5034434;28;20414;-72
2023/11/01 11:54:27;;;;;;;3.93;1.70;;;17.40;99.90;;;;;;5049021;28;20429;-72
2023/11/01 11:56:56;;;;;;;6.10;1.10;;;17.40;99.90;;;;;;5034506;28;20491;-72
2023/11/01 11:59:26;;;;;;;4.90;1.57;;;17.30;99.90;;;;;;5034632;28;20461;-72
2023/11/01 12:01:54;;;;;;;3.20;1.60;;;17.20;99.90;;;;;;5034500;28;20409;-72
2023/11/01 12:04:20;;;;;;;5.00;1.60;;;17.10;99.90;;;;;;5034534;28;20402;-72
2023/11/01 12:06:50;;;;;;;4.10;1.80;;;17.00;99.90;;;;;;5034699;28;20411;-73
2023/11/01 12:09:18;;;;;;;8.23;2.20;;;16.80;99.90;;;;;;5034224;28;20418;-73
2023/11/01 12:11:52;;;;;;;6.40;1.57;;;16.60;99.90;;;;;;5034238;28;20468;-72
2023/11/01 12:14:19;;;;;;;5.03;1.80;;;16.60;99.90;;;;;;5039977;28;20449;-72
2023/11/01 12:16:45;;;;;;;6.63;2.00;;;16.60;99.90;;;;;;5033212;28;20432;-72
2023/11/01 12:19:21;;;;;;;5.97;1.70;;;16.60;99.90;;;;;;5032071;28;20545;-72
2023/11/01 12:21:55;;;;;;;3.63;1.20;;;16.40;99.90;;;;;;5029807;28;20409;-72
2023/11/01 12:24:37;;;;;;;6.00;1.50;;;16.20;99.90;;;;;;5034361;28;20900;-73
2023/11/01 12:27:04;;;;;;;4.80;1.77;;;16.20;99.90;;;;;;5033860;28;20405;-72
2023/11/01 12:29:34;;;;;;;5.53;1.47;;;16.30;99.90;;;;;;5032810;28;20420;-72
2023/11/01 12:32:07;;;;;;;5.27;2.00;;;16.10;99.90;;;;;;5034024;28;20464;-72
2023/11/01 12:34:38;;;;;;;6.93;1.60;;;16.00;99.90;;;;;;5032967;28;20905;-72
2023/11/01 12:37:06;;;;;;;5.60;2.50;;;16.10;99.90;;;;;;5030933;28;20447;-72
2023/11/01 12:39:33;;;;;;;2.63;1.70;;;16.00;99.90;;;;;;5025340;28;20960;-72
2023/11/01 12:42:30;;;;;;;4.63;1.57;;;16.00;99.90;;;;;;5052465;28;20433;-72
2023/11/01 12:44:56;;;;;;;4.80;2.10;;;15.90;99.90;;;;;;5049294;28;20403;-72
2023/11/01 12:47:23;;;;;;;5.93;1.43;;;15.90;99.90;;;;;;5035379;28;20769;-72